sensor_id;sensor_type;location;lat;lon;timestamp;P1;durP1;ratioP1;P2;durP2;ratioP2
76552;SDS011;65395;53.168;18.156;2023-02-28T00:01:12;20.80;;;8.00;;
76552;SDS011;65395;53.168;18.156;2023-02-28T00:03:39;21.80;;;7.70;;
76552;SDS011;65395;53.168;18.156;2023-02-28T00:06:06;24.30;;;8.40;;
76552;SDS011;65395;53.168;18.156;2023-02-28T00:08:36;28.10;;;8.90;;
76552;SDS011;65395;53.168;18.156;2023-02-28T00:11:03;22.70;;;7.70;;
76552;SDS011;65395;53.168;18.156;2023-02-28T00:13:33;24.20;;;8.60;;
76552;SDS011;65395;53.168;18.156;2023-02-28T00:16:03;35.40;;;14.60;;
76552;SDS011;65395;53.168;18.156;2023-02-28T00:18:33;40.50;;;16.70;;
76552;SDS011;65395;53.168;18.156;2023-02-28T00:20:59;26.80;;;10.40;;
76552;SDS011;65395;53.168;18.156;2023-02-28T00:23:26;25.90;;;11.30;;
76552;SDS011;65395;53.168;18.156;2023-02-28T00:25:54;21.70;;;7.90;;
76552;SDS011;65395;53.168;18.156;2023-02-28T00:28:21;23.20;;;8.40;;
76552;SDS011;65395;53.168;18.156;2023-02-28T00:30:48;23.60;;;8.80;;
76552;SDS011;65395;53.168;18.156;2023-02-28T00:33:15;24.20;;;9.20;;
76552;SDS011;65395;53.168;18.156;2023-02-28T00:35:42;47.00;;;16.00;;
76552;SDS011;65395;53.168;18.156;2023-02-28T00:38:13;39.50;;;13.60;;
76552;SDS011;65395;53.168;18.156;2023-02-28T00:40:41;34.70;;;11.20;;
76552;SDS011;65395;53.168;18.156;2023-02-28T00:43:07;30.60;;;9.80;;
76552;SDS011;65395;53.168;18.156;2023-02-28T00:45:34;20.80;;;8.40;;
76552;SDS011;65395;53.168;18.156;2023-02-28T00:48:01;24.00;;;7.60;;
76552;SDS011;65395;53.168;18.156;2023-02-28T00:50:28;25.90;;;8.90;;
76552;SDS011;65395;53.168;18.156;2023-02-28T00:52:57;25.10;;;8.00;;
76552;SDS011;65395;53.168;18.156;2023-02-28T00:55:23;22.80;;;9.10;;
76552;SDS011;65395;53.168;18.156;2023-02-28T00:57:50;29.60;;;11.00;;
76552;SDS011;65395;53.168;18.156;2023-02-28T01:00:17;37.40;;;12.10;;
76552;SDS011;65395;53.168;18.156;2023-02-28T01:02:44;60.30;;;20.20;;
76552;SDS011;65395;53.168;18.156;2023-02-28T01:05:11;33.10;;;11.30;;
76552;SDS011;65395;53.168;18.156;2023-02-28T01:07:38;25.00;;;10.10;;
76552;SDS011;65395;53.168;18.156;2023-02-28T01:10:04;39.80;;;12.80;;
76552;SDS011;65395;53.168;18.156;2023-02-28T01:12:35;41.60;;;13.90;;
76552;SDS011;65395;53.168;18.156;2023-02-28T01:15:01;33.80;;;12.30;;
76552;SDS011;65395;53.168;18.156;2023-02-28T01:17:28;31.70;;;11.20;;
76552;SDS011;65395;53.168;18.156;2023-02-28T01:19:55;32.20;;;11.10;;
76552;SDS011;65395;53.168;18.156;2023-02-28T01:22:25;34.40;;;12.30;;
76552;SDS011;65395;53.168;18.156;2023-02-28T01:24:51;32.90;;;11.70;;
76552;SDS011;65395;53.168;18.156;2023-02-28T01:27:19;38.60;;;12.90;;
76552;SDS011;65395;53.168;18.156;2023-02-28T01:29:46;37.20;;;14.80;;
76552;SDS011;65395;53.168;18.156;2023-02-28T01:32:12;44.50;;;13.50;;
76552;SDS011;65395;53.168;18.156;2023-02-28T01:34:39;41.90;;;13.20;;
76552;SDS011;65395;53.168;18.156;2023-02-28T01:37:06;31.90;;;11.40;;
76552;SDS011;65395;53.168;18.156;2023-02-28T01:39:33;47.80;;;16.00;;
76552;SDS011;65395;53.168;18.156;2023-02-28T01:42:00;58.90;;;22.10;;
76552;SDS011;65395;53.168;18.156;2023-02-28T01:47:13;57.80;;;23.90;;
76552;SDS011;65395;53.168;18.156;2023-02-28T01:49:40;32.10;;;11.90;;
76552;SDS011;65395;53.168;18.156;2023-02-28T01:52:08;46.00;;;14.70;;
76552;SDS011;65395;53.168;18.156;2023-02-28T01:54:41;45.80;;;14.10;;
76552;SDS011;65395;53.168;18.156;2023-02-28T01:57:09;35.10;;;11.90;;
76552;SDS011;65395;53.168;18.156;2023-02-28T01:59:47;34.90;;;12.40;;
76552;SDS011;65395;53.168;18.156;2023-02-28T02:02:19;30.10;;;11.20;;
76552;SDS011;65395;53.168;18.156;2023-02-28T02:04:54;45.90;;;16.30;;
76552;SDS011;65395;53.168;18.156;2023-02-28T02:07:25;46.90;;;15.50;;
76552;SDS011;65395;53.168;18.156;2023-02-28T02:10:01;33.40;;;12.40;;
76552;SDS011;65395;53.168;18.156;2023-02-28T02:12:40;28.60;;;11.00;;
76552;SDS011;65395;53.168;18.156;2023-02-28T02:18:04;35.70;;;11.50;;
76552;SDS011;65395;53.168;18.156;2023-02-28T02:23:56;70.70;;;25.20;;
76552;SDS011;65395;53.168;18.156;2023-02-28T02:26:52;64.30;;;26.00;;
76552;SDS011;65395;53.168;18.156;2023-02-28T02:29:42;45.70;;;18.90;;
76552;SDS011;65395;53.168;18.156;2023-02-28T02:35:19;38.80;;;13.40;;
76552;SDS011;65395;53.168;18.156;2023-02-28T02:38:03;36.70;;;13.40;;
76552;SDS011;65395;53.168;18.156;2023-02-28T02:40:42;39.40;;;14.30;;
76552;SDS011;65395;53.168;18.156;2023-02-28T02:43:19;32.30;;;11.60;;
76552;SDS011;65395;53.168;18.156;2023-02-28T02:45:56;38.40;;;11.70;;
76552;SDS011;65395;53.168;18.156;2023-02-28T02:48:30;40.60;;;14.10;;
76552;SDS011;65395;53.168;18.156;2023-02-28T02:51:01;38.40;;;12.00;;
76552;SDS011;65395;53.168;18.156;2023-02-28T02:53:40;31.90;;;11.40;;
76552;SDS011;65395;53.168;18.156;2023-02-28T02:56:17;32.50;;;11.90;;
76552;SDS011;65395;53.168;18.156;2023-02-28T02:58:46;31.40;;;11.50;;
76552;SDS011;65395;53.168;18.156;2023-02-28T03:01:18;34.70;;;11.60;;
76552;SDS011;65395;53.168;18.156;2023-02-28T03:03:55;33.20;;;12.50;;
76552;SDS011;65395;53.168;18.156;2023-02-28T03:06:25;56.00;;;21.30;;
76552;SDS011;65395;53.168;18.156;2023-02-28T03:08:52;81.20;;;30.40;;
76552;SDS011;65395;53.168;18.156;2023-02-28T03:11:19;71.50;;;29.60;;
76552;SDS011;65395;53.168;18.156;2023-02-28T03:13:52;37.40;;;15.70;;
76552;SDS011;65395;53.168;18.156;2023-02-28T03:22:14;39.10;;;11.90;;
76552;SDS011;65395;53.168;18.156;2023-02-28T03:24:56;45.80;;;14.90;;
76552;SDS011;65395;53.168;18.156;2023-02-28T03:27:32;40.20;;;13.20;;
76552;SDS011;65395;53.168;18.156;2023-02-28T03:30:15;30.30;;;10.90;;
76552;SDS011;65395;53.168;18.156;2023-02-28T03:33:04;33.50;;;11.40;;
76552;SDS011;65395;53.168;18.156;2023-02-28T03:35:45;29.10;;;11.10;;
76552;SDS011;65395;53.168;18.156;2023-02-28T03:38:18;32.00;;;11.40;;
76552;SDS011;65395;53.168;18.156;2023-02-28T03:40:55;34.40;;;11.20;;
76552;SDS011;65395;53.168;18.156;2023-02-28T03:43:34;67.80;;;18.30;;
76552;SDS011;65395;53.168;18.156;2023-02-28T03:46:05;44.60;;;14.80;;
76552;SDS011;65395;53.168;18.156;2023-02-28T03:48:43;34.80;;;12.40;;
76552;SDS011;65395;53.168;18.156;2023-02-28T03:51:15;47.30;;;17.20;;
76552;SDS011;65395;53.168;18.156;2023-02-28T03:53:46;36.50;;;14.30;;
76552;SDS011;65395;53.168;18.156;2023-02-28T03:56:21;33.00;;;11.90;;
76552;SDS011;65395;53.168;18.156;2023-02-28T03:58:54;36.80;;;15.30;;
76552;SDS011;65395;53.168;18.156;2023-02-28T04:01:27;42.70;;;16.00;;
76552;SDS011;65395;53.168;18.156;2023-02-28T04:04:01;31.40;;;11.00;;
76552;SDS011;65395;53.168;18.156;2023-02-28T04:06:30;35.90;;;13.20;;
76552;SDS011;65395;53.168;18.156;2023-02-28T04:08:59;55.10;;;18.30;;
76552;SDS011;65395;53.168;18.156;2023-02-28T04:11:34;41.50;;;14.40;;
76552;SDS011;65395;53.168;18.156;2023-02-28T04:14:03;32.30;;;11.90;;
76552;SDS011;65395;53.168;18.156;2023-02-28T04:16:34;31.30;;;12.00;;
76552;SDS011;65395;53.168;18.156;2023-02-28T04:19:03;36.00;;;11.80;;
76552;SDS011;65395;53.168;18.156;2023-02-28T04:21:33;36.90;;;12.30;;
76552;SDS011;65395;53.168;18.156;2023-02-28T04:24:03;27.50;;;11.70;;
76552;SDS011;65395;53.168;18.156;2023-02-28T04:26:30;33.80;;;12.50;;
76552;SDS011;65395;53.168;18.156;2023-02-28T04:28:58;37.90;;;11.80;;
76552;SDS011;65395;53.168;18.156;2023-02-28T04:31:26;71.60;;;20.30;;
76552;SDS011;65395;53.168;18.156;2023-02-28T04:33:52;67.10;;;23.40;;
76552;SDS011;65395;53.168;18.156;2023-02-28T04:36:19;51.50;;;19.80;;
76552;SDS011;65395;53.168;18.156;2023-02-28T04:38:47;42.90;;;14.40;;
76552;SDS011;65395;53.168;18.156;2023-02-28T04:41:14;41.30;;;14.50;;
76552;SDS011;65395;53.168;18.156;2023-02-28T04:43:41;30.50;;;12.60;;
76552;SDS011;65395;53.168;18.156;2023-02-28T04:46:08;29.70;;;12.30;;
76552;SDS011;65395;53.168;18.156;2023-02-28T04:48:37;33.40;;;12.90;;
76552;SDS011;65395;53.168;18.156;2023-02-28T04:51:06;35.10;;;12.50;;
76552;SDS011;65395;53.168;18.156;2023-02-28T04:53:35;34.50;;;12.30;;
76552;SDS011;65395;53.168;18.156;2023-02-28T04:56:03;53.40;;;17.10;;
76552;SDS011;65395;53.168;18.156;2023-02-28T04:58:30;41.50;;;13.30;;
76552;SDS011;65395;53.168;18.156;2023-02-28T05:01:04;33.20;;;11.70;;
76552;SDS011;65395;53.168;18.156;2023-02-28T05:03:39;64.80;;;18.10;;
76552;SDS011;65395;53.168;18.156;2023-02-28T05:06:07;64.50;;;19.20;;
76552;SDS011;65395;53.168;18.156;2023-02-28T05:08:35;42.60;;;13.30;;
76552;SDS011;65395;53.168;18.156;2023-02-28T05:11:02;28.20;;;11.10;;
76552;SDS011;65395;53.168;18.156;2023-02-28T05:13:30;34.20;;;11.70;;
76552;SDS011;65395;53.168;18.156;2023-02-28T05:15:56;48.70;;;17.00;;
76552;SDS011;65395;53.168;18.156;2023-02-28T05:18:23;54.70;;;19.00;;
76552;SDS011;65395;53.168;18.156;2023-02-28T05:20:50;38.80;;;14.80;;
76552;SDS011;65395;53.168;18.156;2023-02-28T05:23:17;30.80;;;12.10;;
76552;SDS011;65395;53.168;18.156;2023-02-28T05:25:46;26.50;;;10.00;;
76552;SDS011;65395;53.168;18.156;2023-02-28T05:28:13;32.50;;;10.10;;
76552;SDS011;65395;53.168;18.156;2023-02-28T05:30:40;29.90;;;9.50;;
76552;SDS011;65395;53.168;18.156;2023-02-28T05:33:09;27.50;;;9.10;;
76552;SDS011;65395;53.168;18.156;2023-02-28T05:35:38;40.50;;;13.70;;
76552;SDS011;65395;53.168;18.156;2023-02-28T05:38:06;35.40;;;12.40;;
76552;SDS011;65395;53.168;18.156;2023-02-28T05:40:33;28.10;;;10.80;;
76552;SDS011;65395;53.168;18.156;2023-02-28T05:43:00;30.50;;;10.10;;
76552;SDS011;65395;53.168;18.156;2023-02-28T05:45:26;27.60;;;10.10;;
76552;SDS011;65395;53.168;18.156;2023-02-28T05:47:53;36.30;;;12.60;;
76552;SDS011;65395;53.168;18.156;2023-02-28T05:50:21;27.70;;;10.20;;
76552;SDS011;65395;53.168;18.156;2023-02-28T05:52:49;22.60;;;8.80;;
76552;SDS011;65395;53.168;18.156;2023-02-28T05:55:16;28.90;;;10.00;;
76552;SDS011;65395;53.168;18.156;2023-02-28T05:57:43;50.10;;;17.50;;
76552;SDS011;65395;53.168;18.156;2023-02-28T06:00:11;56.30;;;19.30;;
76552;SDS011;65395;53.168;18.156;2023-02-28T06:02:39;29.20;;;12.40;;
76552;SDS011;65395;53.168;18.156;2023-02-28T06:05:09;28.50;;;11.10;;
76552;SDS011;65395;53.168;18.156;2023-02-28T06:07:40;27.40;;;11.30;;
76552;SDS011;65395;53.168;18.156;2023-02-28T06:10:08;24.70;;;9.70;;
76552;SDS011;65395;53.168;18.156;2023-02-28T06:12:36;23.10;;;8.20;;
76552;SDS011;65395;53.168;18.156;2023-02-28T06:15:04;20.70;;;8.80;;
76552;SDS011;65395;53.168;18.156;2023-02-28T06:17:31;21.00;;;8.00;;
76552;SDS011;65395;53.168;18.156;2023-02-28T06:19:58;21.70;;;9.10;;
76552;SDS011;65395;53.168;18.156;2023-02-28T06:22:24;24.00;;;9.10;;
76552;SDS011;65395;53.168;18.156;2023-02-28T06:24:51;21.80;;;9.40;;
76552;SDS011;65395;53.168;18.156;2023-02-28T06:27:19;22.10;;;9.00;;
76552;SDS011;65395;53.168;18.156;2023-02-28T06:29:46;25.80;;;9.70;;
76552;SDS011;65395;53.168;18.156;2023-02-28T06:32:13;27.70;;;10.40;;
76552;SDS011;65395;53.168;18.156;2023-02-28T06:34:40;30.50;;;12.30;;
76552;SDS011;65395;53.168;18.156;2023-02-28T06:37:07;22.40;;;9.40;;
76552;SDS011;65395;53.168;18.156;2023-02-28T06:39:33;25.40;;;9.40;;
76552;SDS011;65395;53.168;18.156;2023-02-28T06:42:00;24.70;;;9.50;;
76552;SDS011;65395;53.168;18.156;2023-02-28T06:44:27;32.00;;;12.70;;
76552;SDS011;65395;53.168;18.156;2023-02-28T06:47:02;67.30;;;25.80;;
76552;SDS011;65395;53.168;18.156;2023-02-28T06:49:32;77.80;;;30.30;;
76552;SDS011;65395;53.168;18.156;2023-02-28T06:52:00;72.50;;;32.10;;
76552;SDS011;65395;53.168;18.156;2023-02-28T06:54:27;70.80;;;34.90;;
76552;SDS011;65395;53.168;18.156;2023-02-28T06:56:54;40.70;;;21.20;;
76552;SDS011;65395;53.168;18.156;2023-02-28T06:59:20;31.50;;;14.10;;
76552;SDS011;65395;53.168;18.156;2023-02-28T07:01:47;28.20;;;13.10;;
76552;SDS011;65395;53.168;18.156;2023-02-28T07:04:14;28.80;;;13.00;;
76552;SDS011;65395;53.168;18.156;2023-02-28T07:06:40;29.10;;;13.20;;
76552;SDS011;65395;53.168;18.156;2023-02-28T07:09:07;42.00;;;15.80;;
76552;SDS011;65395;53.168;18.156;2023-02-28T07:11:34;55.60;;;19.10;;
76552;SDS011;65395;53.168;18.156;2023-02-28T07:14:01;64.30;;;21.60;;
76552;SDS011;65395;53.168;18.156;2023-02-28T07:16:28;51.70;;;20.40;;
76552;SDS011;65395;53.168;18.156;2023-02-28T07:18:55;52.50;;;18.30;;
76552;SDS011;65395;53.168;18.156;2023-02-28T07:21:22;48.10;;;18.90;;
76552;SDS011;65395;53.168;18.156;2023-02-28T07:23:48;54.20;;;18.30;;
76552;SDS011;65395;53.168;18.156;2023-02-28T07:26:17;63.30;;;24.50;;
76552;SDS011;65395;53.168;18.156;2023-02-28T07:28:45;86.30;;;34.30;;
76552;SDS011;65395;53.168;18.156;2023-02-28T07:31:14;61.40;;;28.00;;
76552;SDS011;65395;53.168;18.156;2023-02-28T07:33:41;37.90;;;15.70;;
76552;SDS011;65395;53.168;18.156;2023-02-28T07:36:11;45.30;;;17.60;;
76552;SDS011;65395;53.168;18.156;2023-02-28T07:38:41;55.50;;;19.90;;
76552;SDS011;65395;53.168;18.156;2023-02-28T07:41:10;84.60;;;25.90;;
76552;SDS011;65395;53.168;18.156;2023-02-28T07:43:37;68.50;;;24.20;;
76552;SDS011;65395;53.168;18.156;2023-02-28T07:46:05;92.60;;;29.10;;
76552;SDS011;65395;53.168;18.156;2023-02-28T07:48:34;103.90;;;31.70;;
76552;SDS011;65395;53.168;18.156;2023-02-28T07:51:01;92.10;;;29.20;;
76552;SDS011;65395;53.168;18.156;2023-02-28T07:53:29;62.10;;;21.90;;
76552;SDS011;65395;53.168;18.156;2023-02-28T07:55:56;134.10;;;36.60;;
76552;SDS011;65395;53.168;18.156;2023-02-28T07:58:24;95.00;;;29.70;;
76552;SDS011;65395;53.168;18.156;2023-02-28T08:00:52;59.60;;;22.40;;
76552;SDS011;65395;53.168;18.156;2023-02-28T08:03:20;108.60;;;48.10;;
76552;SDS011;65395;53.168;18.156;2023-02-28T08:05:49;91.20;;;46.20;;
76552;SDS011;65395;53.168;18.156;2023-02-28T08:08:16;92.30;;;38.30;;
76552;SDS011;65395;53.168;18.156;2023-02-28T08:10:43;72.60;;;25.80;;
76552;SDS011;65395;53.168;18.156;2023-02-28T08:13:10;90.10;;;29.60;;
76552;SDS011;65395;53.168;18.156;2023-02-28T08:15:36;66.10;;;25.60;;
76552;SDS011;65395;53.168;18.156;2023-02-28T08:18:03;57.40;;;23.60;;
76552;SDS011;65395;53.168;18.156;2023-02-28T08:20:30;48.80;;;21.00;;
76552;SDS011;65395;53.168;18.156;2023-02-28T08:22:57;62.90;;;24.30;;
76552;SDS011;65395;53.168;18.156;2023-02-28T08:25:23;66.70;;;24.50;;
76552;SDS011;65395;53.168;18.156;2023-02-28T08:27:51;48.10;;;21.20;;
76552;SDS011;65395;53.168;18.156;2023-02-28T08:30:18;37.10;;;18.10;;
76552;SDS011;65395;53.168;18.156;2023-02-28T08:32:46;49.40;;;21.00;;
76552;SDS011;65395;53.168;18.156;2023-02-28T08:35:13;42.50;;;19.60;;
76552;SDS011;65395;53.168;18.156;2023-02-28T08:37:40;40.10;;;18.80;;
76552;SDS011;65395;53.168;18.156;2023-02-28T08:40:06;34.00;;;17.90;;
76552;SDS011;65395;53.168;18.156;2023-02-28T08:42:34;29.60;;;15.50;;
76552;SDS011;65395;53.168;18.156;2023-02-28T08:45:01;45.80;;;24.40;;
76552;SDS011;65395;53.168;18.156;2023-02-28T08:47:28;39.50;;;19.60;;
76552;SDS011;65395;53.168;18.156;2023-02-28T08:49:54;28.70;;;14.00;;
76552;SDS011;65395;53.168;18.156;2023-02-28T08:52:21;28.70;;;13.80;;
76552;SDS011;65395;53.168;18.156;2023-02-28T08:54:48;26.60;;;12.90;;
76552;SDS011;65395;53.168;18.156;2023-02-28T08:57:15;27.40;;;13.00;;
76552;SDS011;65395;53.168;18.156;2023-02-28T08:59:42;33.50;;;13.60;;
76552;SDS011;65395;53.168;18.156;2023-02-28T09:02:10;34.10;;;13.30;;
76552;SDS011;65395;53.168;18.156;2023-02-28T09:04:40;28.10;;;12.10;;
76552;SDS011;65395;53.168;18.156;2023-02-28T09:07:08;24.90;;;11.80;;
76552;SDS011;65395;53.168;18.156;2023-02-28T09:09:34;29.00;;;13.20;;
76552;SDS011;65395;53.168;18.156;2023-02-28T09:12:01;31.50;;;13.50;;
76552;SDS011;65395;53.168;18.156;2023-02-28T09:14:28;26.10;;;12.20;;
76552;SDS011;65395;53.168;18.156;2023-02-28T09:16:55;24.90;;;12.00;;
76552;SDS011;65395;53.168;18.156;2023-02-28T09:19:22;21.80;;;10.00;;
76552;SDS011;65395;53.168;18.156;2023-02-28T09:21:48;20.30;;;10.50;;
76552;SDS011;65395;53.168;18.156;2023-02-28T09:24:15;21.00;;;10.10;;
76552;SDS011;65395;53.168;18.156;2023-02-28T09:26:42;17.90;;;7.60;;
76552;SDS011;65395;53.168;18.156;2023-02-28T09:29:09;14.10;;;7.30;;
76552;SDS011;65395;53.168;18.156;2023-02-28T09:31:37;19.70;;;9.50;;
76552;SDS011;65395;53.168;18.156;2023-02-28T09:34:04;20.40;;;8.40;;
76552;SDS011;65395;53.168;18.156;2023-02-28T09:36:31;20.90;;;8.70;;
76552;SDS011;65395;53.168;18.156;2023-02-28T09:38:59;19.30;;;7.90;;
76552;SDS011;65395;53.168;18.156;2023-02-28T09:41:26;16.10;;;7.50;;
76552;SDS011;65395;53.168;18.156;2023-02-28T09:43:59;13.90;;;6.60;;
76552;SDS011;65395;53.168;18.156;2023-02-28T09:46:33;13.10;;;6.50;;
76552;SDS011;65395;53.168;18.156;2023-02-28T09:49:10;11.80;;;6.30;;
76552;SDS011;65395;53.168;18.156;2023-02-28T09:51:45;12.40;;;6.20;;
76552;SDS011;65395;53.168;18.156;2023-02-28T09:54:21;11.70;;;6.10;;
76552;SDS011;65395;53.168;18.156;2023-02-28T09:56:53;9.20;;;4.80;;
76552;SDS011;65395;53.168;18.156;2023-02-28T10:05:12;8.40;;;4.00;;
76552;SDS011;65395;53.168;18.156;2023-02-28T10:10:35;13.70;;;4.60;;
76552;SDS011;65395;53.168;18.156;2023-02-28T10:13:11;9.20;;;4.20;;
76552;SDS011;65395;53.168;18.156;2023-02-28T10:15:42;12.10;;;4.80;;
76552;SDS011;65395;53.168;18.156;2023-02-28T10:18:14;9.20;;;4.90;;
76552;SDS011;65395;53.168;18.156;2023-02-28T10:20:47;9.80;;;4.60;;
76552;SDS011;65395;53.168;18.156;2023-02-28T10:23:20;12.60;;;4.70;;
76552;SDS011;65395;53.168;18.156;2023-02-28T10:25:52;8.40;;;4.20;;
76552;SDS011;65395;53.168;18.156;2023-02-28T10:28:25;9.50;;;3.80;;
76552;SDS011;65395;53.168;18.156;2023-02-28T10:30:55;7.30;;;4.40;;
76552;SDS011;65395;53.168;18.156;2023-02-28T10:33:23;7.60;;;3.20;;
76552;SDS011;65395;53.168;18.156;2023-02-28T10:35:54;6.80;;;3.50;;
76552;SDS011;65395;53.168;18.156;2023-02-28T10:38:23;7.10;;;3.80;;
76552;SDS011;65395;53.168;18.156;2023-02-28T10:41:04;9.40;;;4.20;;
76552;SDS011;65395;53.168;18.156;2023-02-28T10:43:33;8.80;;;3.60;;
76552;SDS011;65395;53.168;18.156;2023-02-28T10:46:02;10.60;;;3.90;;
76552;SDS011;65395;53.168;18.156;2023-02-28T10:48:43;6.80;;;3.90;;
76552;SDS011;65395;53.168;18.156;2023-02-28T10:51:15;11.60;;;4.50;;
76552;SDS011;65395;53.168;18.156;2023-02-28T10:53:47;9.90;;;3.90;;
76552;SDS011;65395;53.168;18.156;2023-02-28T10:56:17;9.70;;;3.70;;
76552;SDS011;65395;53.168;18.156;2023-02-28T10:58:49;7.20;;;3.60;;
76552;SDS011;65395;53.168;18.156;2023-02-28T11:01:24;8.00;;;2.90;;
76552;SDS011;65395;53.168;18.156;2023-02-28T11:04:16;5.90;;;2.90;;
76552;SDS011;65395;53.168;18.156;2023-02-28T11:09:45;6.80;;;3.70;;
76552;SDS011;65395;53.168;18.156;2023-02-28T11:12:21;7.30;;;3.80;;
76552;SDS011;65395;53.168;18.156;2023-02-28T11:14:59;10.20;;;4.20;;
76552;SDS011;65395;53.168;18.156;2023-02-28T11:17:29;8.20;;;4.10;;
76552;SDS011;65395;53.168;18.156;2023-02-28T11:20:00;9.00;;;4.70;;
76552;SDS011;65395;53.168;18.156;2023-02-28T11:22:31;6.10;;;3.60;;
76552;SDS011;65395;53.168;18.156;2023-02-28T11:25:06;7.90;;;4.20;;
76552;SDS011;65395;53.168;18.156;2023-02-28T11:27:42;8.70;;;4.00;;
76552;SDS011;65395;53.168;18.156;2023-02-28T11:32:55;7.20;;;3.90;;
76552;SDS011;65395;53.168;18.156;2023-02-28T11:35:24;6.70;;;3.40;;
76552;SDS011;65395;53.168;18.156;2023-02-28T11:38:01;8.50;;;4.20;;
76552;SDS011;65395;53.168;18.156;2023-02-28T11:46:28;8.50;;;3.90;;
76552;SDS011;65395;53.168;18.156;2023-02-28T11:49:21;7.70;;;4.20;;
76552;SDS011;65395;53.168;18.156;2023-02-28T11:52:05;7.30;;;3.60;;
76552;SDS011;65395;53.168;18.156;2023-02-28T12:00:27;7.20;;;4.00;;
76552;SDS011;65395;53.168;18.156;2023-02-28T12:06:09;7.10;;;4.00;;
76552;SDS011;65395;53.168;18.156;2023-02-28T12:08:54;10.20;;;4.40;;
76552;SDS011;65395;53.168;18.156;2023-02-28T12:11:45;10.40;;;4.40;;
76552;SDS011;65395;53.168;18.156;2023-02-28T12:17:17;10.80;;;4.40;;
76552;SDS011;65395;53.168;18.156;2023-02-28T12:25:38;9.00;;;4.30;;
76552;SDS011;65395;53.168;18.156;2023-02-28T12:28:28;8.00;;;4.00;;
76552;SDS011;65395;53.168;18.156;2023-02-28T12:31:01;8.60;;;4.30;;
76552;SDS011;65395;53.168;18.156;2023-02-28T12:33:36;9.40;;;4.20;;
76552;SDS011;65395;53.168;18.156;2023-02-28T12:36:10;10.50;;;5.10;;
76552;SDS011;65395;53.168;18.156;2023-02-28T12:38:44;10.90;;;5.20;;
76552;SDS011;65395;53.168;18.156;2023-02-28T12:41:16;9.70;;;5.20;;
76552;SDS011;65395;53.168;18.156;2023-02-28T12:43:58;12.40;;;4.90;;
76552;SDS011;65395;53.168;18.156;2023-02-28T12:46:36;11.80;;;4.90;;
76552;SDS011;65395;53.168;18.156;2023-02-28T12:51:49;9.60;;;5.30;;
76552;SDS011;65395;53.168;18.156;2023-02-28T12:54:25;8.40;;;4.20;;
76552;SDS011;65395;53.168;18.156;2023-02-28T12:57:07;12.20;;;5.40;;
76552;SDS011;65395;53.168;18.156;2023-02-28T12:59:50;11.20;;;5.40;;
76552;SDS011;65395;53.168;18.156;2023-02-28T13:02:27;10.40;;;5.00;;
76552;SDS011;65395;53.168;18.156;2023-02-28T13:08:13;12.30;;;5.40;;
76552;SDS011;65395;53.168;18.156;2023-02-28T13:10:55;12.80;;;5.40;;
76552;SDS011;65395;53.168;18.156;2023-02-28T13:13:23;14.20;;;5.70;;
76552;SDS011;65395;53.168;18.156;2023-02-28T13:15:57;13.30;;;6.20;;
76552;SDS011;65395;53.168;18.156;2023-02-28T13:18:28;9.10;;;5.00;;
76552;SDS011;65395;53.168;18.156;2023-02-28T13:20:58;11.60;;;5.40;;
76552;SDS011;65395;53.168;18.156;2023-02-28T13:29:27;8.60;;;4.20;;
76552;SDS011;65395;53.168;18.156;2023-02-28T13:35:12;9.50;;;3.90;;
76552;SDS011;65395;53.168;18.156;2023-02-28T13:37:43;9.00;;;3.50;;
76552;SDS011;65395;53.168;18.156;2023-02-28T13:40:29;7.30;;;2.60;;
76552;SDS011;65395;53.168;18.156;2023-02-28T13:43:03;6.60;;;2.80;;
76552;SDS011;65395;53.168;18.156;2023-02-28T13:45:35;4.50;;;2.50;;
76552;SDS011;65395;53.168;18.156;2023-02-28T13:50:44;5.50;;;2.60;;
76552;SDS011;65395;53.168;18.156;2023-02-28T13:53:24;4.80;;;2.60;;
76552;SDS011;65395;53.168;18.156;2023-02-28T13:58:55;5.90;;;2.40;;
76552;SDS011;65395;53.168;18.156;2023-02-28T14:07:19;5.40;;;2.40;;
76552;SDS011;65395;53.168;18.156;2023-02-28T14:20:54;5.10;;;2.70;;
76552;SDS011;65395;53.168;18.156;2023-02-28T14:23:34;5.40;;;2.20;;
76552;SDS011;65395;53.168;18.156;2023-02-28T14:26:19;6.30;;;2.40;;
76552;SDS011;65395;53.168;18.156;2023-02-28T14:31:58;4.70;;;2.40;;
76552;SDS011;65395;53.168;18.156;2023-02-28T14:34:53;7.50;;;4.60;;
76552;SDS011;65395;53.168;18.156;2023-02-28T14:37:26;5.00;;;2.40;;
76552;SDS011;65395;53.168;18.156;2023-02-28T14:39:57;5.10;;;2.20;;
76552;SDS011;65395;53.168;18.156;2023-02-28T14:42:30;4.90;;;2.50;;
76552;SDS011;65395;53.168;18.156;2023-02-28T14:44:59;5.30;;;2.40;;
76552;SDS011;65395;53.168;18.156;2023-02-28T14:47:28;6.30;;;3.20;;
76552;SDS011;65395;53.168;18.156;2023-02-28T14:49:59;6.30;;;2.40;;
76552;SDS011;65395;53.168;18.156;2023-02-28T14:52:27;6.20;;;2.70;;
76552;SDS011;65395;53.168;18.156;2023-02-28T14:54:57;6.40;;;3.10;;
76552;SDS011;65395;53.168;18.156;2023-02-28T14:57:30;10.60;;;3.80;;
76552;SDS011;65395;53.168;18.156;2023-02-28T15:00:04;8.90;;;4.20;;
76552;SDS011;65395;53.168;18.156;2023-02-28T15:02:38;9.50;;;4.20;;
76552;SDS011;65395;53.168;18.156;2023-02-28T15:05:19;8.50;;;4.10;;
76552;SDS011;65395;53.168;18.156;2023-02-28T15:08:00;9.10;;;3.90;;
76552;SDS011;65395;53.168;18.156;2023-02-28T15:10:30;6.10;;;3.60;;
76552;SDS011;65395;53.168;18.156;2023-02-28T15:13:00;8.50;;;3.60;;
76552;SDS011;65395;53.168;18.156;2023-02-28T15:18:15;10.80;;;4.40;;
76552;SDS011;65395;53.168;18.156;2023-02-28T15:21:04;7.30;;;3.20;;
76552;SDS011;65395;53.168;18.156;2023-02-28T15:23:34;5.20;;;3.20;;
76552;SDS011;65395;53.168;18.156;2023-02-28T15:26:03;6.40;;;3.00;;
76552;SDS011;65395;53.168;18.156;2023-02-28T15:28:30;7.00;;;3.40;;
76552;SDS011;65395;53.168;18.156;2023-02-28T15:31:00;7.50;;;3.30;;
76552;SDS011;65395;53.168;18.156;2023-02-28T15:33:30;9.60;;;3.80;;
76552;SDS011;65395;53.168;18.156;2023-02-28T15:36:10;5.90;;;3.40;;
76552;SDS011;65395;53.168;18.156;2023-02-28T15:38:41;7.10;;;3.50;;
76552;SDS011;65395;53.168;18.156;2023-02-28T15:41:21;5.50;;;3.00;;
76552;SDS011;65395;53.168;18.156;2023-02-28T15:46:40;7.50;;;4.50;;
76552;SDS011;65395;53.168;18.156;2023-02-28T15:49:18;8.10;;;3.70;;
76552;SDS011;65395;53.168;18.156;2023-02-28T15:51:48;6.70;;;3.40;;
76552;SDS011;65395;53.168;18.156;2023-02-28T15:54:26;7.80;;;3.20;;
76552;SDS011;65395;53.168;18.156;2023-02-28T15:56:57;5.10;;;3.10;;
76552;SDS011;65395;53.168;18.156;2023-02-28T15:59:30;7.10;;;3.10;;
76552;SDS011;65395;53.168;18.156;2023-02-28T16:07:28;7.60;;;2.70;;
76552;SDS011;65395;53.168;18.156;2023-02-28T16:09:56;5.60;;;2.80;;
76552;SDS011;65395;53.168;18.156;2023-02-28T16:12:25;6.60;;;2.90;;
76552;SDS011;65395;53.168;18.156;2023-02-28T16:14:55;8.30;;;3.60;;
76552;SDS011;65395;53.168;18.156;2023-02-28T16:17:25;7.60;;;3.50;;
76552;SDS011;65395;53.168;18.156;2023-02-28T16:19:54;10.00;;;4.70;;
76552;SDS011;65395;53.168;18.156;2023-02-28T16:22:22;9.20;;;4.70;;
76552;SDS011;65395;53.168;18.156;2023-02-28T16:24:49;24.80;;;7.90;;
76552;SDS011;65395;53.168;18.156;2023-02-28T16:27:18;23.90;;;8.50;;